createdAt,value
2019-03-30T00:00:10.218Z,100606.41
2019-03-30T00:10:16.720Z,100600.44
2019-03-30T00:20:21.717Z,100590.25
2019-03-30T00:30:26.704Z,100580.03
2019-03-30T00:40:31.702Z,100581.74
2019-03-30T00:50:36.814Z,100573.38
2019-03-30T01:00:41.791Z,100576.73
2019-03-30T01:10:47.174Z,100568.76
2019-03-30T01:20:52.295Z,100568.89
2019-03-30T01:30:57.287Z,100551.67
2019-03-30T01:41:02.312Z,100544.51
2019-03-30T01:51:07.382Z,100535.58
2019-03-30T02:01:12.365Z,100529.66
2019-03-30T02:11:18.291Z,100528.86
2019-03-30T02:21:23.228Z,100535.03
2019-03-30T02:31:28.165Z,100536.17
2019-03-30T02:41:33.207Z,100538.85
2019-03-30T02:51:38.278Z,100529.59
2019-03-30T03:01:43.251Z,100525.70
2019-03-30T03:11:48.243Z,100522.74
2019-03-30T03:21:53.233Z,100515.02
2019-03-30T03:31:58.229Z,100496.66
2019-03-30T03:42:05.166Z,100490.88
2019-03-30T03:52:10.283Z,100486.45
2019-03-30T04:02:17.270Z,100499.25
2019-03-30T04:12:24.682Z,100496.66
2019-03-30T04:22:29.770Z,100504.23
2019-03-30T04:32:34.730Z,100507.72
2019-03-30T04:42:39.745Z,100500.80
2019-03-30T04:52:44.745Z,100494.75
2019-03-30T05:02:49.733Z,100490.41
2019-03-30T05:12:54.726Z,100493.88
2019-03-30T05:22:59.821Z,100490.44
2019-03-30T05:33:06.443Z,100483.25
2019-03-30T05:43:11.659Z,100484.11
2019-03-30T05:53:16.700Z,100487.14
2019-03-30T06:03:21.729Z,100481.09
2019-03-30T06:13:26.778Z,100478.95
2019-03-30T06:23:32.168Z,100480.48
2019-03-30T06:33:56.321Z,100482.41
2019-03-30T06:44:06.095Z,100479.52
2019-03-30T06:54:14.570Z,100493.69
2019-03-30T07:04:17.932Z,100497.70
2019-03-30T07:14:24.730Z,100491.75
2019-03-30T07:24:29.862Z,100488.84
2019-03-30T07:34:34.935Z,100479.32
2019-03-30T07:44:40.042Z,100471.07
2019-03-30T07:54:45.061Z,100478.89
2019-03-30T08:04:52.495Z,100477.47
2019-03-30T08:14:57.690Z,100473.26
2019-03-30T08:25:02.880Z,100462.74
2019-03-30T08:35:08.666Z,100457.41
2019-03-30T08:45:13.900Z,100442.30
2019-03-30T08:55:19.007Z,100429.26
2019-03-30T09:05:24.164Z,100420.84
2019-03-30T09:15:29.187Z,100411.73
2019-03-30T09:25:34.380Z,100392.19
2019-03-30T09:35:39.579Z,100396.80
2019-03-30T09:45:44.657Z,100387.96
2019-03-30T09:55:49.675Z,100373.13
2019-03-30T10:05:54.771Z,100366.69
2019-03-30T10:15:59.866Z,100363.34
2019-03-30T10:26:05.170Z,100353.34
2019-03-30T10:36:10.258Z,100355.55
2019-03-30T10:46:16.700Z,100333.98
2019-03-30T10:56:23.019Z,100321.61
2019-03-30T11:06:28.219Z,100307.22
2019-03-30T11:16:35.155Z,100306.36
2019-03-30T11:39:38.833Z,100255.95
2019-03-30T11:49:44.227Z,100252.78
2019-03-30T11:59:49.463Z,100239.44
2019-03-30T12:09:54.735Z,100220.33
2019-03-30T12:20:00.169Z,100197.63
2019-03-30T12:30:07.068Z,100188.17
2019-03-30T12:40:12.827Z,100170.16
2019-03-30T12:50:18.714Z,100156.77
2019-03-30T13:00:24.267Z,100133.77
2019-03-30T13:10:29.927Z,100127.52
2019-03-30T13:20:35.238Z,100115.08
2019-03-30T13:30:40.551Z,100099.31
2019-03-30T13:40:46.009Z,100084.28
2019-03-30T13:50:51.397Z,100077.98
2019-03-30T14:00:56.704Z,100057.63
2019-03-30T14:11:02.910Z,100053.98
2019-03-30T14:21:08.249Z,100037.78
2019-03-30T14:31:13.582Z,100020.34
2019-03-30T14:41:18.984Z,100010.53
2019-03-30T14:51:24.342Z,100001.82
2019-03-30T15:01:29.695Z,99981.20
2019-03-30T15:11:37.857Z,99970.57
2019-03-30T15:21:42.318Z,99946.70
2019-03-30T15:31:47.979Z,99932.20
2019-03-30T15:41:53.214Z,99918.81
2019-03-30T15:52:13.023Z,99908.34
2019-03-30T16:02:05.692Z,99912.93
2019-03-30T16:12:10.965Z,99895.59
2019-03-30T16:22:16.660Z,99875.43
2019-03-30T16:32:23.198Z,99871.11
2019-03-30T16:42:28.521Z,99865.79
2019-03-30T16:52:33.836Z,99851.80
2019-03-30T17:02:39.730Z,99842.45
2019-03-30T17:12:45.252Z,99839.69
2019-03-30T17:22:50.919Z,99833.23
2019-03-30T17:32:56.238Z,99836.16
2019-03-30T17:43:01.683Z,99842.30
2019-03-30T17:53:07.247Z,99834.53
2019-03-30T18:03:12.795Z,99846.29
2019-03-30T18:13:18.423Z,99841.89
2019-03-30T18:23:25.517Z,99850.93
2019-03-30T18:33:31.684Z,99844.61
2019-03-30T18:43:37.400Z,99840.95
2019-03-30T18:53:43.759Z,99847.45
2019-03-30T19:03:49.361Z,99839.66
2019-03-30T19:13:55.150Z,99844.74
2019-03-30T19:24:01.106Z,99846.61
2019-03-30T19:34:07.847Z,99833.56
2019-03-30T19:44:13.662Z,99839.20
2019-03-30T19:54:19.450Z,99839.20
2019-03-30T20:04:25.144Z,99830.79
2019-03-30T20:14:30.788Z,99823.47
2019-03-30T20:24:36.777Z,99816.14
2019-03-30T20:34:42.690Z,99809.40
2019-03-30T20:44:48.387Z,99803.84
2019-03-30T20:54:54.131Z,99797.45
2019-03-30T21:05:00.345Z,99794.42
2019-03-30T21:15:06.796Z,99775.28
2019-03-30T21:25:12.577Z,99763.63
2019-03-30T21:35:18.007Z,99766.20
2019-03-30T21:45:23.515Z,99754.11
2019-03-30T21:55:29.089Z,99757.56
2019-03-30T22:05:35.001Z,99747.56
2019-03-30T22:15:40.317Z,99718.48
2019-03-30T22:25:45.723Z,99729.81
2019-03-30T22:35:51.804Z,99725.00
2019-03-30T22:45:57.104Z,99726.77
2019-03-30T22:56:02.334Z,99722.77
2019-03-30T23:06:07.795Z,99712.45
2019-03-30T23:16:13.169Z,99717.20
2019-03-30T23:26:18.513Z,99707.53
2019-03-30T23:36:25.043Z,99704.53
2019-03-30T23:46:30.229Z,99703.47
2019-03-30T23:56:35.451Z,99692.77
